Time;durP1;ratioP1;P1;durP2;ratioP2;P2;SDS_P1;SDS_P2;PMS_P1;PMS_P2;Temp;Humidity;BMP_temperature;BMP_pressure;BME280_temperature;BME280_humidity;BME280_pressure;Samples;Min_cycle;Max_cycle;Signal;HPM_P1;HPM_P2
2022/01/01 00:02:01;;;;;;;1.75;1.08;;;12.00;99.90;;;;;;4444123;32;20135;-68
2022/01/01 00:04:27;;;;;;;1.70;1.60;;;12.00;99.90;;;;;;4444554;32;20121;-68
2022/01/01 00:06:52;;;;;;;0.90;0.90;;;12.00;99.90;;;;;;4444160;32;20065;-68
2022/01/01 00:09:18;;;;;;;4.03;1.67;;;12.00;99.90;;;;;;4444614;32;20065;-68
2022/01/01 00:11:43;;;;;;;25.05;2.05;;;12.00;99.90;;;;;;4444518;32;20064;-68
2022/01/01 00:14:09;;;;;;;3.67;1.62;;;12.00;99.90;;;;;;4444784;32;20411;-68
2022/01/01 00:16:34;;;;;;;3.42;1.87;;;12.00;99.90;;;;;;4444421;32;20069;-68
2022/01/01 00:19:00;;;;;;;8.18;1.73;;;12.00;99.90;;;;;;4444607;32;20108;-67
2022/01/01 00:21:25;;;;;;;2.00;1.23;;;12.00;99.90;;;;;;4444240;32;20056;-68
2022/01/01 00:23:51;;;;;;;0.60;0.60;;;12.00;99.90;;;;;;4445222;32;20057;-68
2022/01/01 00:26:17;;;;;;;2.47;1.27;;;12.00;99.90;;;;;;4444738;32;20529;-68
2022/01/01 00:28:42;;;;;;;1.05;0.80;;;12.00;99.90;;;;;;4444770;32;20510;-68
2022/01/01 00:31:08;;;;;;;0.90;0.90;;;12.00;99.90;;;;;;4443020;32;20076;-68
2022/01/01 00:33:33;;;;;;;0.68;0.68;;;12.00;99.90;;;;;;4443608;32;20065;-68
2022/01/01 00:35:59;;;;;;;1.08;0.95;;;12.00;99.90;;;;;;4443563;32;20443;-69
2022/01/01 00:38:24;;;;;;;3.10;1.55;;;12.00;99.90;;;;;;4444586;32;20417;-70
2022/01/01 00:40:50;;;;;;;1.23;0.90;;;12.00;99.90;;;;;;4439458;32;20120;-69
2022/01/01 00:43:16;;;;;;;2.83;1.35;;;12.00;99.90;;;;;;4443876;32;20078;-69
2022/01/01 00:45:41;;;;;;;1.45;1.02;;;12.00;99.90;;;;;;4444881;32;20065;-69
2022/01/01 00:48:07;;;;;;;1.27;1.17;;;12.00;99.90;;;;;;4443713;32;20136;-69
2022/01/01 00:50:32;;;;;;;1.17;0.95;;;12.00;99.90;;;;;;4444872;32;20074;-69
2022/01/01 00:52:58;;;;;;;5.15;1.75;;;12.00;99.90;;;;;;4444824;32;20529;-68
2022/01/01 00:55:24;;;;;;;3.30;1.58;;;12.00;99.90;;;;;;4444592;32;20080;-68
2022/01/01 00:57:49;;;;;;;4.90;1.30;;;12.00;99.90;;;;;;4442653;32;20065;-68
2022/01/01 01:00:15;;;;;;;1.10;1.00;;;12.00;99.90;;;;;;4444321;32;20064;-69
2022/01/01 01:02:41;;;;;;;1.15;1.02;;;12.00;99.90;;;;;;4444725;32;20065;-69
2022/01/01 01:05:07;;;;;;;7.07;2.10;;;12.00;99.90;;;;;;4445003;32;20103;-69
2022/01/01 01:07:32;;;;;;;2.30;1.73;;;12.00;99.90;;;;;;4443913;32;20058;-68
2022/01/01 01:09:58;;;;;;;3.53;1.37;;;12.00;99.90;;;;;;4445500;32;20077;-69
2022/01/01 01:12:27;;;;;;;3.08;1.40;;;12.00;99.90;;;;;;4443503;32;20057;-69
2022/01/01 01:14:53;;;;;;;0.70;0.70;;;12.00;99.90;;;;;;4445182;32;20556;-69
2022/01/01 01:17:19;;;;;;;2.15;0.82;;;12.10;99.90;;;;;;4444468;32;20187;-69
2022/01/01 01:19:44;;;;;;;1.12;0.80;;;12.00;99.90;;;;;;4443512;32;20119;-69
2022/01/01 01:22:10;;;;;;;2.35;1.15;;;12.00;99.90;;;;;;4444036;32;20061;-69
2022/01/01 01:24:35;;;;;;;2.30;0.95;;;12.00;99.90;;;;;;4444288;32;20078;-69
2022/01/01 01:27:03;;;;;;;0.70;0.70;;;12.00;99.90;;;;;;4443382;32;21892;-68
2022/01/01 01:29:32;;;;;;;1.83;1.00;;;12.00;99.90;;;;;;4443315;32;20057;-69
2022/01/01 01:31:57;;;;;;;1.98;1.55;;;12.00;99.90;;;;;;4445151;32;20069;-69
2022/01/01 01:34:23;;;;;;;1.55;0.68;;;12.00;99.90;;;;;;4444044;32;20116;-68
2022/01/01 01:36:48;;;;;;;3.08;1.48;;;12.00;99.90;;;;;;4443648;32;20116;-69
2022/01/01 01:39:14;;;;;;;0.50;0.50;;;12.00;99.90;;;;;;4443015;32;20520;-69
2022/01/01 01:41:42;;;;;;;0.60;0.60;;;12.00;99.90;;;;;;4442903;32;20057;-68
2022/01/01 01:44:30;;;;;;;1.40;1.30;;;12.00;99.90;;;;;;4445276;32;20065;-69
2022/01/01 01:46:58;;;;;;;1.33;1.15;;;12.00;99.90;;;;;;4432512;32;20057;-69
2022/01/01 01:49:24;;;;;;;0.85;0.70;;;12.00;99.90;;;;;;4443450;32;20077;-68
2022/01/01 01:51:50;;;;;;;0.73;0.73;;;12.00;99.90;;;;;;4444628;32;20065;-69
2022/01/01 01:54:17;;;;;;;2.50;1.17;;;12.00;99.90;;;;;;4443800;32;20442;-69
2022/01/01 01:56:43;;;;;;;0.80;0.75;;;12.00;99.90;;;;;;4440271;32;20069;-69
2022/01/01 01:59:10;;;;;;;0.55;0.55;;;12.00;99.90;;;;;;4443984;32;20465;-69
2022/01/01 02:01:36;;;;;;;0.70;0.70;;;12.00;99.90;;;;;;4443333;32;20061;-69
2022/01/01 02:04:01;;;;;;;0.47;0.47;;;12.00;99.90;;;;;;4444165;32;20525;-68
2022/01/01 02:06:27;;;;;;;0.82;0.80;;;12.00;99.90;;;;;;4443043;32;20078;-68
2022/01/01 02:08:52;;;;;;;0.57;0.57;;;12.00;99.90;;;;;;4442903;32;20564;-69
2022/01/01 02:11:20;;;;;;;0.70;0.70;;;12.00;99.90;;;;;;4442773;32;20074;-68
2022/01/01 02:18:50;;;;;;;0.75;0.75;;;11.90;99.90;;;;;;4443205;32;20150;-68
2022/01/01 02:21:16;;;;;;;0.62;0.62;;;11.90;99.90;;;;;;4443129;32;20058;-69
2022/01/01 02:23:44;;;;;;;2.20;0.88;;;12.00;99.90;;;;;;4442682;32;20140;-68
2022/01/01 02:26:12;;;;;;;2.45;1.35;;;11.90;99.90;;;;;;4443109;32;20057;-69
2022/01/01 02:28:46;;;;;;;3.58;1.17;;;11.90;99.90;;;;;;4442999;32;20102;-69
2022/01/01 02:31:13;;;;;;;0.75;0.75;;;11.90;99.90;;;;;;4442429;32;20080;-69
2022/01/01 02:33:39;;;;;;;3.10;1.48;;;11.90;99.90;;;;;;4443090;32;20119;-69
2022/01/01 02:36:06;;;;;;;6.43;1.77;;;11.90;99.90;;;;;;4442937;32;20065;-69
2022/01/01 02:38:33;;;;;;;16.25;1.23;;;11.90;99.90;;;;;;4441708;32;20077;-69
2022/01/01 02:40:59;;;;;;;2.83;1.33;;;11.90;99.90;;;;;;4442923;32;20070;-69
2022/01/01 02:43:25;;;;;;;3.05;1.77;;;11.90;99.90;;;;;;4443084;32;20078;-68
2022/01/01 02:45:51;;;;;;;1.35;0.80;;;11.90;99.90;;;;;;4442842;32;20124;-69
2022/01/01 02:48:16;;;;;;;0.90;0.90;;;11.90;99.90;;;;;;4443405;32;20064;-69
2022/01/01 02:50:42;;;;;;;4.93;1.70;;;11.90;99.90;;;;;;4443232;32;20081;-69
2022/01/01 02:53:12;;;;;;;0.80;0.60;;;11.90;99.90;;;;;;4443970;32;20062;-68
2022/01/01 02:55:38;;;;;;;0.50;0.50;;;11.90;99.90;;;;;;4447220;32;20062;-68
2022/01/01 02:58:04;;;;;;;1.15;0.50;;;11.90;99.90;;;;;;4446280;32;20061;-69
2022/01/01 03:00:30;;;;;;;0.62;0.62;;;11.90;99.90;;;;;;4445619;32;20120;-69
2022/01/01 03:02:55;;;;;;;0.75;0.70;;;11.90;99.90;;;;;;4446826;32;20069;-69
2022/01/01 03:05:21;;;;;;;1.48;0.80;;;11.90;99.90;;;;;;4447246;32;20061;-68
2022/01/01 03:07:46;;;;;;;0.98;0.90;;;11.90;99.90;;;;;;4446170;32;20460;-68
2022/01/01 03:10:12;;;;;;;0.90;0.90;;;11.90;99.90;;;;;;4447142;32;20514;-68
2022/01/01 03:12:37;;;;;;;0.60;0.60;;;11.90;99.90;;;;;;4445600;32;20061;-68
2022/01/01 03:15:03;;;;;;;0.90;0.80;;;11.90;99.90;;;;;;4445688;32;20451;-69
2022/01/01 03:17:29;;;;;;;0.73;0.70;;;11.90;99.90;;;;;;4446067;32;20069;-69
2022/01/01 03:19:54;;;;;;;0.80;0.80;;;11.90;99.90;;;;;;4446415;32;20061;-68
2022/01/01 03:22:20;;;;;;;0.80;0.80;;;11.90;99.90;;;;;;4445667;32;20501;-68
2022/01/01 03:24:45;;;;;;;2.17;1.23;;;11.90;99.90;;;;;;4445354;32;20093;-68
2022/01/01 03:27:11;;;;;;;4.45;1.30;;;11.90;99.90;;;;;;4446545;32;20379;-69
2022/01/01 03:29:36;;;;;;;0.60;0.60;;;11.90;99.90;;;;;;4444787;32;20135;-68
2022/01/01 03:32:02;;;;;;;0.50;0.50;;;12.00;99.90;;;;;;4444747;32;20076;-68
2022/01/01 03:34:27;;;;;;;0.60;0.60;;;12.00;99.90;;;;;;4446395;32;20135;-69
2022/01/01 03:36:53;;;;;;;0.73;0.73;;;12.00;99.90;;;;;;4444408;32;20074;-69
2022/01/01 03:39:21;;;;;;;6.55;1.42;;;12.00;99.90;;;;;;4440561;32;20075;-69
2022/01/01 03:41:47;;;;;;;0.90;0.90;;;12.00;99.90;;;;;;4445788;32;20081;-69
2022/01/01 03:44:13;;;;;;;0.40;0.40;;;12.00;99.90;;;;;;4445364;32;20065;-68
2022/01/01 03:46:38;;;;;;;0.52;0.50;;;12.00;99.90;;;;;;4446769;32;20058;-68
2022/01/01 03:49:03;;;;;;;0.80;0.80;;;11.90;99.90;;;;;;4444487;32;20073;-69
2022/01/01 03:51:29;;;;;;;1.23;0.85;;;11.90;99.90;;;;;;4444350;32;20483;-69
2022/01/01 03:53:54;;;;;;;5.22;0.55;;;11.90;99.90;;;;;;4445362;32;20074;-68
2022/01/01 03:56:20;;;;;;;0.80;0.80;;;12.00;99.90;;;;;;4446060;32;20057;-69
2022/01/01 03:58:45;;;;;;;9.65;2.83;;;12.00;99.90;;;;;;4443432;32;20126;-68
2022/01/01 04:01:11;;;;;;;1.12;0.88;;;12.00;99.90;;;;;;4444422;32;20077;-69
2022/01/01 04:03:36;;;;;;;0.40;0.40;;;12.00;99.90;;;;;;4444318;32;20144;-68
2022/01/01 04:06:02;;;;;;;1.92;0.70;;;12.00;99.90;;;;;;4444365;32;20107;-68
2022/01/01 04:08:30;;;;;;;0.82;0.77;;;11.90;99.90;;;;;;4446014;32;20057;-69
2022/01/01 04:10:56;;;;;;;1.85;1.23;;;11.90;99.90;;;;;;4445869;32;20556;-68
2022/01/01 04:13:22;;;;;;;1.27;1.17;;;11.90;99.90;;;;;;4445416;32;20086;-68
2022/01/01 04:15:47;;;;;;;1.62;0.82;;;11.90;99.90;;;;;;4444359;32;20828;-69
2022/01/01 04:18:18;;;;;;;1.05;0.70;;;11.90;99.90;;;;;;4443955;32;20118;-68
2022/01/01 04:20:44;;;;;;;2.03;1.40;;;11.90;99.90;;;;;;4444860;32;20110;-69
2022/01/01 04:23:10;;;;;;;0.60;0.60;;;11.90;99.90;;;;;;4446023;32;20096;-69
2022/01/01 04:25:36;;;;;;;1.48;1.02;;;11.90;99.90;;;;;;4445811;32;20081;-69
2022/01/01 04:28:03;;;;;;;1.45;1.35;;;11.90;99.90;;;;;;4443806;32;20065;-68
2022/01/01 04:30:29;;;;;;;0.80;0.80;;;12.00;99.90;;;;;;4443984;32;20061;-69
2022/01/01 04:32:55;;;;;;;1.23;0.80;;;12.00;99.90;;;;;;4441567;32;103188;-69
2022/01/01 04:35:21;;;;;;;3.00;0.93;;;12.00;99.90;;;;;;4445169;32;20065;-69
2022/01/01 04:37:46;;;;;;;0.80;0.80;;;12.00;99.90;;;;;;4445331;32;20085;-68
2022/01/01 04:40:12;;;;;;;2.90;1.20;;;12.00;99.90;;;;;;4444702;32;20127;-68
2022/01/01 04:42:38;;;;;;;7.12;0.68;;;12.00;99.90;;;;;;4444728;32;20069;-69
2022/01/01 04:45:04;;;;;;;0.60;0.60;;;12.00;99.90;;;;;;4444506;32;20054;-68
2022/01/01 04:47:30;;;;;;;2.60;1.37;;;12.00;99.90;;;;;;4445835;32;20107;-68
2022/01/01 04:49:55;;;;;;;3.97;1.23;;;12.00;99.90;;;;;;4445874;32;20123;-69
2022/01/01 04:52:21;;;;;;;1.77;0.73;;;12.00;99.90;;;;;;4444009;32;20077;-69
2022/01/01 04:54:46;;;;;;;0.70;0.70;;;12.00;99.90;;;;;;4444334;32;20100;-68
2022/01/01 04:57:12;;;;;;;0.90;0.75;;;12.10;99.90;;;;;;4442971;32;20384;-68
2022/01/01 04:59:40;;;;;;;2.12;1.58;;;12.00;99.90;;;;;;4443242;32;20512;-69
2022/01/01 05:02:05;;;;;;;13.55;1.75;;;12.00;99.90;;;;;;4443542;32;20468;-68
2022/01/01 05:04:31;;;;;;;1.00;1.00;;;12.00;99.90;;;;;;4444675;32;20065;-69
2022/01/01 05:06:57;;;;;;;1.25;1.17;;;12.00;99.90;;;;;;4444045;32;20466;-69
2022/01/01 05:09:23;;;;;;;0.75;0.75;;;12.00;99.90;;;;;;4444653;32;20517;-69
2022/01/01 05:11:48;;;;;;;2.95;1.30;;;12.00;99.90;;;;;;4443825;32;20177;-68
2022/01/01 05:14:15;;;;;;;6.68;1.15;;;12.00;99.90;;;;;;4443952;32;20094;-69
2022/01/01 05:16:42;;;;;;;2.12;0.93;;;12.00;99.90;;;;;;4442184;32;20057;-68
2022/01/01 05:19:08;;;;;;;0.85;0.85;;;12.00;99.90;;;;;;4444393;32;20064;-68
2022/01/01 05:21:35;;;;;;;0.60;0.60;;;12.00;99.90;;;;;;4443912;32;20096;-68
2022/01/01 05:24:04;;;;;;;1.23;0.95;;;12.00;99.90;;;;;;4437837;32;20065;-68
2022/01/01 05:26:30;;;;;;;16.45;1.15;;;12.00;99.90;;;;;;4444581;32;20065;-69
2022/01/01 05:28:55;;;;;;;0.60;0.60;;;12.00;99.90;;;;;;4443095;32;20097;-69
2022/01/01 05:31:21;;;;;;;0.90;0.85;;;12.00;99.90;;;;;;4444607;32;20065;-68
2022/01/01 05:33:48;;;;;;;0.55;0.55;;;12.00;99.90;;;;;;4443848;32;20065;-68
2022/01/01 05:36:14;;;;;;;1.80;1.10;;;12.00;99.90;;;;;;4443528;32;20116;-68
2022/01/01 05:38:41;;;;;;;1.95;1.25;;;12.00;99.90;;;;;;4443928;32;20068;-68
2022/01/01 05:41:07;;;;;;;21.05;1.48;;;12.00;99.90;;;;;;4444235;32;20523;-67
2022/01/01 05:43:32;;;;;;;0.98;0.95;;;12.00;99.90;;;;;;4444447;32;20160;-68
2022/01/01 05:45:58;;;;;;;0.73;0.73;;;12.00;99.90;;;;;;4443883;32;20061;-68
2022/01/01 05:48:24;;;;;;;2.83;1.35;;;12.00;99.90;;;;;;4444418;32;20165;-68
2022/01/01 05:50:49;;;;;;;2.83;1.80;;;12.00;99.90;;;;;;4443400;32;20428;-69
2022/01/01 05:53:15;;;;;;;3.28;1.85;;;12.00;99.90;;;;;;4443430;32;20120;-69
2022/01/01 05:55:41;;;;;;;7.12;1.52;;;12.00;99.90;;;;;;4443781;32;20062;-68
2022/01/01 05:58:06;;;;;;;2.67;1.35;;;12.00;99.90;;;;;;4442128;32;20133;-68
2022/01/01 06:00:32;;;;;;;14.18;1.10;;;12.00;99.90;;;;;;4444114;32;20119;-69
2022/01/01 06:02:58;;;;;;;5.05;1.15;;;12.00;99.90;;;;;;4443891;32;20402;-68
2022/01/01 06:05:25;;;;;;;10.70;0.90;;;12.00;99.90;;;;;;4444297;32;20069;-68
2022/01/01 06:07:51;;;;;;;0.52;0.52;;;12.00;99.90;;;;;;4442459;32;20414;-68
2022/01/01 06:10:17;;;;;;;0.73;0.73;;;12.00;99.90;;;;;;4443068;32;20066;-69
2022/01/01 06:12:42;;;;;;;3.55;0.88;;;12.00;99.90;;;;;;4442483;32;20603;-68
2022/01/01 06:15:08;;;;;;;52.60;2.03;;;12.00;99.90;;;;;;4443765;32;20061;-68
2022/01/01 06:17:33;;;;;;;1.55;0.60;;;12.00;99.90;;;;;;4444183;32;20068;-68
2022/01/01 06:19:59;;;;;;;0.98;0.98;;;12.10;99.90;;;;;;4444865;32;20069;-68
2022/01/01 06:22:24;;;;;;;1.12;0.90;;;12.00;99.90;;;;;;4443897;32;20085;-69
2022/01/01 06:24:50;;;;;;;2.35;1.00;;;12.00;99.90;;;;;;4443990;32;20065;-69
2022/01/01 06:27:15;;;;;;;0.93;0.85;;;12.10;99.90;;;;;;4442153;32;20072;-69
2022/01/01 06:29:41;;;;;;;2.22;1.20;;;12.10;99.90;;;;;;4443337;32;20409;-70
2022/01/01 06:32:07;;;;;;;1.37;0.90;;;12.00;99.90;;;;;;4442843;32;20375;-68
2022/01/01 06:34:32;;;;;;;1.85;1.20;;;12.00;99.90;;;;;;4443234;32;20120;-69
2022/01/01 06:36:57;;;;;;;2.20;1.05;;;12.00;99.90;;;;;;4444368;32;20065;-68
2022/01/01 06:39:23;;;;;;;3.67;0.90;;;12.00;99.90;;;;;;4440876;32;20160;-68
2022/01/01 06:41:48;;;;;;;0.68;0.68;;;12.00;99.90;;;;;;4443826;32;20517;-69
2022/01/01 06:44:14;;;;;;;0.77;0.77;;;12.00;99.90;;;;;;4444324;32;20493;-68
2022/01/01 06:46:39;;;;;;;2.15;0.70;;;12.00;99.90;;;;;;4443362;32;20065;-68
2022/01/01 06:49:05;;;;;;;5.95;1.33;;;12.00;99.90;;;;;;4442912;32;20379;-69
2022/01/01 06:51:32;;;;;;;1.17;0.73;;;12.10;99.90;;;;;;4442958;32;20119;-68
2022/01/01 06:53:58;;;;;;;1.25;0.82;;;12.10;99.90;;;;;;4443755;32;20133;-69
2022/01/01 06:56:23;;;;;;;7.05;1.23;;;12.10;99.90;;;;;;4442687;32;20088;-68
2022/01/01 06:58:49;;;;;;;0.75;0.75;;;12.10;99.90;;;;;;4442510;32;20678;-68
2022/01/01 07:01:14;;;;;;;2.00;1.12;;;12.00;99.90;;;;;;4442130;32;20135;-68
2022/01/01 07:03:40;;;;;;;2.75;1.77;;;12.10;99.90;;;;;;4442508;32;20065;-69
2022/01/01 07:06:06;;;;;;;5.78;1.87;;;12.00;99.90;;;;;;4443445;32;20517;-68
2022/01/01 07:08:31;;;;;;;2.65;1.25;;;12.00;99.90;;;;;;4443553;32;20077;-68
2022/01/01 07:10:57;;;;;;;0.80;0.80;;;12.10;99.90;;;;;;4443216;32;20061;-68
2022/01/01 07:13:24;;;;;;;0.60;0.60;;;12.10;99.90;;;;;;4443104;32;20450;-69
2022/01/01 07:15:50;;;;;;;0.60;0.60;;;12.10;99.90;;;;;;4442612;32;20075;-69
2022/01/01 07:18:15;;;;;;;0.80;0.80;;;12.10;99.90;;;;;;4443732;32;20061;-69
2022/01/01 07:20:41;;;;;;;1.85;0.70;;;12.10;99.90;;;;;;4443870;32;20435;-69
2022/01/01 07:23:06;;;;;;;1.92;1.30;;;12.00;99.90;;;;;;4443598;32;20069;-68
2022/01/01 07:25:32;;;;;;;1.23;1.10;;;12.00;99.90;;;;;;4442545;32;20072;-69
2022/01/01 07:27:57;;;;;;;1.05;1.00;;;12.10;99.90;;;;;;4441962;32;20075;-69
2022/01/01 07:30:23;;;;;;;0.60;0.60;;;12.10;99.90;;;;;;4442357;32;20077;-68
2022/01/01 07:32:49;;;;;;;4.60;1.52;;;12.10;99.90;;;;;;4442352;32;20115;-68
2022/01/01 07:35:16;;;;;;;1.67;1.15;;;12.10;99.90;;;;;;4443354;32;20455;-68
2022/01/01 07:37:42;;;;;;;0.80;0.80;;;12.00;99.90;;;;;;4442769;32;20160;-68
2022/01/01 07:40:11;;;;;;;1.80;1.37;;;12.10;99.90;;;;;;4444160;32;20065;-69
2022/01/01 07:42:36;;;;;;;1.45;1.05;;;12.10;99.90;;;;;;4446282;32;20497;-68
2022/01/01 07:45:03;;;;;;;3.30;0.95;;;12.10;99.90;;;;;;4446188;32;20128;-69
2022/01/01 07:47:29;;;;;;;11.93;1.45;;;12.10;99.90;;;;;;4444954;32;20451;-68
2022/01/01 07:49:54;;;;;;;0.62;0.60;;;12.10;99.90;;;;;;4445079;32;20069;-68
2022/01/01 07:52:20;;;;;;;2.70;1.02;;;12.10;99.90;;;;;;4445189;32;20604;-69
2022/01/01 07:54:45;;;;;;;0.82;0.73;;;12.10;99.90;;;;;;4444797;32;20073;-68
2022/01/01 07:57:11;;;;;;;2.50;1.52;;;12.10;99.90;;;;;;4444750;32;20069;-68
2022/01/01 07:59:36;;;;;;;1.05;1.05;;;12.10;99.90;;;;;;4445235;32;20111;-68
2022/01/01 08:02:02;;;;;;;3.10;1.52;;;12.10;99.90;;;;;;4445464;32;20168;-69
2022/01/01 08:04:27;;;;;;;0.80;0.80;;;12.10;99.90;;;;;;4445147;32;20065;-67
2022/01/01 08:06:53;;;;;;;4.68;0.93;;;12.10;99.90;;;;;;4443714;32;20459;-68
2022/01/01 08:09:18;;;;;;;3.50;1.02;;;12.10;99.90;;;;;;4445264;32;20077;-68
2022/01/01 08:11:44;;;;;;;7.32;1.10;;;12.10;99.90;;;;;;4444950;32;20072;-69
2022/01/01 08:14:10;;;;;;;3.00;0.90;;;12.10;99.90;;;;;;4445767;32;20116;-68
2022/01/01 08:16:54;;;;;;;2.95;0.98;;;12.10;99.90;;;;;;4444310;32;20438;-68
2022/01/01 08:19:20;;;;;;;0.73;0.65;;;12.10;99.90;;;;;;4445184;32;20061;-69
2022/01/01 08:21:45;;;;;;;16.73;1.83;;;12.10;99.90;;;;;;4444952;32;20082;-68
2022/01/01 08:24:11;;;;;;;0.95;0.90;;;12.10;99.90;;;;;;4444669;32;20069;-67
2022/01/01 08:26:36;;;;;;;0.90;0.90;;;12.10;99.90;;;;;;4444895;32;20065;-68
2022/01/01 08:29:02;;;;;;;1.98;1.00;;;12.10;99.90;;;;;;4445440;32;20061;-68
2022/01/01 08:31:27;;;;;;;1.15;1.02;;;12.10;99.90;;;;;;4444364;32;20517;-68
2022/01/01 08:33:53;;;;;;;7.90;1.15;;;12.10;99.90;;;;;;4444913;32;20061;-68
2022/01/01 08:36:18;;;;;;;3.25;1.00;;;12.10;99.90;;;;;;4444514;32;20411;-67
2022/01/01 08:38:43;;;;;;;0.82;0.82;;;12.10;99.90;;;;;;4442702;32;20551;-69
2022/01/01 08:41:09;;;;;;;1.02;0.88;;;12.20;99.90;;;;;;4431617;32;20066;-67
2022/01/01 08:43:36;;;;;;;1.60;1.30;;;12.20;99.90;;;;;;4444558;32;20155;-67
2022/01/01 08:46:01;;;;;;;0.57;0.57;;;12.10;99.90;;;;;;4430238;32;20061;-68
2022/01/01 08:48:27;;;;;;;11.98;1.80;;;12.20;99.90;;;;;;4443809;32;20078;-68
2022/01/01 08:50:52;;;;;;;4.28;1.45;;;12.20;99.90;;;;;;4443264;32;20160;-69
2022/01/01 08:53:18;;;;;;;1.08;0.95;;;12.20;99.90;;;;;;4443866;32;20069;-68
2022/01/01 08:55:43;;;;;;;24.87;2.75;;;12.20;99.90;;;;;;4443037;32;20133;-68
2022/01/01 08:58:09;;;;;;;3.10;1.52;;;12.20;99.90;;;;;;4444232;32;20069;-68
2022/01/01 09:00:34;;;;;;;1.00;0.98;;;12.20;99.90;;;;;;4444039;32;20086;-68
2022/01/01 09:03:00;;;;;;;1.85;0.90;;;12.20;99.90;;;;;;4444326;32;20061;-68
2022/01/01 09:05:26;;;;;;;4.57;1.27;;;12.20;99.90;;;;;;4445030;32;20493;-68
2022/01/01 09:07:52;;;;;;;3.85;1.65;;;12.30;99.90;;;;;;4444500;32;20065;-69
2022/01/01 09:10:19;;;;;;;0.90;0.90;;;12.20;99.90;;;;;;4444070;32;20823;-68
2022/01/01 09:12:44;;;;;;;0.73;0.73;;;12.30;99.90;;;;;;4444407;32;20060;-69
2022/01/01 09:15:10;;;;;;;2.45;1.33;;;12.20;99.90;;;;;;4443839;32;20154;-68
2022/01/01 09:17:35;;;;;;;4.90;1.50;;;12.30;99.90;;;;;;4444885;32;20065;-69
2022/01/01 09:20:02;;;;;;;3.40;1.10;;;12.30;99.90;;;;;;4445683;32;20061;-69
2022/01/01 09:22:28;;;;;;;10.73;2.58;;;12.30;99.90;;;;;;4444313;32;20517;-69
2022/01/01 09:24:54;;;;;;;0.80;0.80;;;12.30;99.90;;;;;;4443372;32;20088;-69
2022/01/01 09:27:20;;;;;;;2.37;0.98;;;12.30;99.90;;;;;;4443424;32;20127;-67
2022/01/01 09:29:45;;;;;;;7.72;1.20;;;12.30;99.90;;;;;;4444071;32;20525;-68
2022/01/01 09:32:11;;;;;;;3.55;1.45;;;12.30;99.90;;;;;;4443357;32;20114;-68
2022/01/01 09:34:37;;;;;;;1.05;1.00;;;12.30;99.90;;;;;;4444015;32;20089;-69
2022/01/01 09:37:03;;;;;;;8.05;1.02;;;12.30;99.90;;;;;;4443819;32;20072;-68
2022/01/01 09:39:29;;;;;;;3.78;1.40;;;12.30;99.90;;;;;;4439848;32;20065;-69
2022/01/01 09:41:56;;;;;;;0.77;0.73;;;12.30;99.90;;;;;;4443965;32;20069;-69
2022/01/01 09:44:21;;;;;;;2.47;0.88;;;12.30;99.90;;;;;;4444526;32;20061;-69
2022/01/01 09:46:49;;;;;;;0.77;0.77;;;12.30;99.90;;;;;;4444533;32;20474;-69
2022/01/01 09:49:16;;;;;;;1.80;1.33;;;12.30;99.90;;;;;;4444479;32;20064;-68
2022/01/01 09:51:43;;;;;;;1.90;0.75;;;12.40;99.90;;;;;;4443611;32;20081;-69
2022/01/01 09:54:08;;;;;;;1.37;1.20;;;12.30;99.90;;;;;;4444384;32;20073;-68
2022/01/01 09:56:34;;;;;;;10.65;2.40;;;12.40;99.90;;;;;;4442569;32;20116;-69
2022/01/01 09:59:00;;;;;;;2.70;1.87;;;12.40;99.90;;;;;;4442476;32;20057;-68
2022/01/01 10:01:25;;;;;;;7.90;2.35;;;12.40;99.90;;;;;;4443232;32;20508;-68
2022/01/01 10:03:52;;;;;;;16.35;1.62;;;12.40;99.90;;;;;;4444011;32;20443;-68
2022/01/01 10:06:20;;;;;;;5.68;1.87;;;12.40;99.90;;;;;;4443392;32;20574;-68
2022/01/01 10:08:48;;;;;;;5.10;1.60;;;12.40;99.90;;;;;;4444645;32;20537;-68
2022/01/01 10:11:17;;;;;;;0.88;0.73;;;12.40;99.90;;;;;;4443825;32;20089;-68
2022/01/01 10:13:43;;;;;;;4.50;1.98;;;12.40;99.90;;;;;;4443753;32;20120;-68
2022/01/01 10:16:10;;;;;;;2.78;0.98;;;12.40;99.90;;;;;;4443431;32;20077;-68
2022/01/01 10:18:39;;;;;;;4.10;1.58;;;12.40;99.90;;;;;;4443476;32;20069;-67
2022/01/01 10:21:08;;;;;;;0.57;0.50;;;12.50;99.90;;;;;;4443366;32;20847;-67
2022/01/01 10:23:35;;;;;;;1.33;1.23;;;12.50;99.90;;;;;;4443569;32;20311;-68
2022/01/01 10:27:46;;;;;;;1.08;0.98;;;12.50;99.90;;;;;;4444115;32;20414;-68
2022/01/01 10:29:26;;;;;;;0.98;0.90;;;12.40;99.90;;;;;;4422857;32;20228;-68
2022/01/01 10:31:55;;;;;;;4.90;0.95;;;12.50;99.90;;;;;;4442637;32;20454;-68
2022/01/01 10:34:24;;;;;;;1.17;1.02;;;12.50;99.90;;;;;;4442756;32;20125;-68
2022/01/01 10:36:52;;;;;;;1.23;1.10;;;12.50;99.90;;;;;;4440672;32;20077;-68
2022/01/01 10:39:18;;;;;;;5.10;1.85;;;12.40;99.90;;;;;;4438048;32;20161;-67
2022/01/01 10:42:00;;;;;;;6.25;1.92;;;12.40;99.90;;;;;;4440755;32;20501;-68
2022/01/01 10:44:30;;;;;;;6.03;1.15;;;12.50;99.90;;;;;;4443354;32;20061;-68
2022/01/01 10:46:57;;;;;;;1.90;1.10;;;12.50;99.90;;;;;;4444336;32;20076;-68
2022/01/01 10:50:28;;;;;;;0.73;0.70;;;12.50;99.90;;;;;;4442202;32;20132;-68
2022/01/01 10:52:32;;;;;;;1.00;0.90;;;12.50;99.90;;;;;;4429086;32;20090;-68
2022/01/01 10:55:02;;;;;;;1.00;0.90;;;12.60;99.90;;;;;;4434440;32;20119;-67
2022/01/01 10:57:33;;;;;;;1.48;0.88;;;12.60;99.90;;;;;;4440559;32;20427;-67
2022/01/01 11:00:16;;;;;;;10.85;1.08;;;12.60;99.90;;;;;;4443010;32;20058;-68
2022/01/01 11:02:44;;;;;;;4.85;1.10;;;12.60;99.90;;;;;;4437892;32;20387;-67
2022/01/01 11:05:11;;;;;;;0.77;0.77;;;12.60;99.90;;;;;;4438025;32;20066;-68
2022/01/01 11:07:48;;;;;;;0.80;0.80;;;12.60;99.90;;;;;;4442750;32;20057;-67
2022/01/01 11:10:14;;;;;;;2.87;0.90;;;12.60;99.90;;;;;;4443747;32;20058;-67
2022/01/01 11:12:41;;;;;;;2.15;1.50;;;12.60;99.90;;;;;;4443130;32;20159;-68
2022/01/01 11:15:08;;;;;;;2.00;1.42;;;12.60;99.90;;;;;;4444775;32;20458;-68
2022/01/01 11:17:34;;;;;;;1.00;0.85;;;12.70;99.90;;;;;;4446631;32;20077;-68
2022/01/01 11:20:03;;;;;;;12.15;0.90;;;12.70;99.90;;;;;;4445143;32;20089;-68
2022/01/01 11:22:29;;;;;;;1.70;1.23;;;12.70;99.90;;;;;;4445612;32;20438;-68
2022/01/01 11:24:55;;;;;;;2.50;0.88;;;12.70;99.90;;;;;;4444736;32;20122;-68
2022/01/01 11:27:20;;;;;;;4.90;1.83;;;12.70;99.90;;;;;;4446162;32;20068;-67
2022/01/01 11:29:50;;;;;;;1.70;1.00;;;12.70;99.90;;;;;;4445079;32;20570;-68
2022/01/01 11:32:19;;;;;;;1.73;1.12;;;12.70;99.90;;;;;;4444892;32;20064;-68
2022/01/01 11:34:46;;;;;;;1.45;1.02;;;12.70;99.90;;;;;;4445367;32;20081;-68
2022/01/01 11:37:16;;;;;;;1.83;1.20;;;12.70;99.90;;;;;;4445724;32;20061;-67
2022/01/01 11:39:44;;;;;;;4.03;1.35;;;12.70;99.90;;;;;;4445418;32;20060;-68
2022/01/01 11:42:13;;;;;;;1.77;1.23;;;12.70;99.90;;;;;;4444845;32;20085;-67
2022/01/01 11:44:42;;;;;;;4.45;1.25;;;12.70;99.90;;;;;;4444993;32;20085;-69
2022/01/01 11:47:18;;;;;;;3.83;1.45;;;12.80;99.90;;;;;;4445223;32;20167;-67
2022/01/01 11:49:45;;;;;;;6.25;1.17;;;12.80;99.90;;;;;;4446346;32;20532;-68
2022/01/01 11:52:11;;;;;;;1.60;1.25;;;12.80;99.90;;;;;;4445237;32;20115;-68
2022/01/01 11:54:38;;;;;;;2.15;1.37;;;12.90;99.90;;;;;;4446143;32;20432;-68
2022/01/01 11:57:10;;;;;;;2.62;1.62;;;12.90;99.90;;;;;;4444043;32;20478;-67
2022/01/01 11:59:40;;;;;;;7.30;3.08;;;12.90;99.90;;;;;;4443565;32;20078;-68
2022/01/01 12:02:26;;;;;;;;;;;12.90;99.90;;;;;;4444342;32;20508;-67
2022/01/01 12:04:55;;;;;;;2.87;1.17;;;12.90;99.90;;;;;;4430197;32;19951;-68
2022/01/01 12:07:24;;;;;;;9.95;2.30;;;12.90;99.90;;;;;;4444912;32;20776;-69
2022/01/01 12:10:11;;;;;;;15.80;2.35;;;12.90;99.90;;;;;;4444504;32;20123;-67
2022/01/01 12:12:39;;;;;;;23.67;3.42;;;12.90;99.90;;;;;;4429134;32;20072;-68
2022/01/01 12:15:08;;;;;;;1.85;1.02;;;12.90;99.90;;;;;;4444723;32;20394;-68
2022/01/01 12:17:53;;;;;;;1.87;1.48;;;12.90;99.90;;;;;;4444555;32;20419;-69
2022/01/01 12:20:22;;;;;;;1.23;1.12;;;12.90;99.90;;;;;;4444037;32;20057;-67
2022/01/01 12:22:49;;;;;;;2.50;1.45;;;13.00;99.90;;;;;;4438026;32;20525;-67
2022/01/01 12:25:17;;;;;;;1.05;1.05;;;13.00;99.90;;;;;;4444500;32;20509;-68
2022/01/01 12:27:47;;;;;;;7.43;0.85;;;13.00;99.90;;;;;;4444914;32;20065;-68
2022/01/01 12:30:14;;;;;;;1.20;0.98;;;13.00;99.90;;;;;;4444365;32;20570;-67
2022/01/01 12:32:44;;;;;;;1.20;1.10;;;12.90;99.90;;;;;;4443970;32;20078;-67
2022/01/01 12:35:17;;;;;;;3.87;1.57;;;12.90;99.90;;;;;;4440536;32;20096;-68
2022/01/01 12:37:42;;;;;;;0.93;0.90;;;12.90;99.90;;;;;;4444793;32;20057;-68
2022/01/01 12:40:10;;;;;;;7.43;1.70;;;12.90;99.90;;;;;;4443730;32;20101;-68
2022/01/01 12:42:36;;;;;;;1.37;1.12;;;12.90;99.90;;;;;;4444875;32;20053;-68
2022/01/01 12:45:06;;;;;;;0.77;0.77;;;12.90;99.90;;;;;;4444906;32;20567;-68
2022/01/01 12:47:31;;;;;;;1.02;1.00;;;12.90;99.90;;;;;;4445020;32;20089;-68
2022/01/01 12:49:58;;;;;;;2.78;1.48;;;12.90;99.90;;;;;;4444197;32;20054;-69